createdAt,value
2018-09-02T00:02:18.509Z,7.95
2018-09-02T00:04:47.206Z,7.90
2018-09-02T00:07:15.479Z,7.20
2018-09-02T00:09:43.749Z,7.42
2018-09-02T00:12:13.354Z,8.58
2018-09-02T00:14:41.598Z,5.97
2018-09-02T00:17:09.842Z,9.23
2018-09-02T00:19:38.590Z,7.45
2018-09-02T00:22:06.827Z,6.70
2018-09-02T00:24:35.083Z,6.22
2018-09-02T00:27:03.843Z,5.72
2018-09-02T00:29:32.114Z,6.97
2018-09-02T00:32:00.345Z,5.55
2018-09-02T00:34:28.871Z,7.08
2018-09-02T00:36:57.162Z,5.45
2018-09-02T00:39:25.402Z,5.67
2018-09-02T00:41:54.106Z,6.05
2018-09-02T00:44:22.415Z,5.28
2018-09-02T00:46:50.642Z,6.05
2018-09-02T00:49:19.352Z,4.97
2018-09-02T00:51:47.582Z,5.20
2018-09-02T00:54:15.894Z,4.37
2018-09-02T00:56:44.492Z,5.15
2018-09-02T00:59:12.746Z,5.08
2018-09-02T01:01:40.969Z,4.20
2018-09-02T01:04:09.532Z,5.15
2018-09-02T01:06:37.782Z,4.35
2018-09-02T01:09:06.677Z,5.20
2018-09-02T01:11:35.282Z,4.20
2018-09-02T01:14:04.346Z,4.28
2018-09-02T01:16:32.572Z,4.22
2018-09-02T01:19:01.438Z,4.03
2018-09-02T01:21:29.822Z,3.95
2018-09-02T01:23:58.221Z,4.37
2018-09-02T01:26:26.785Z,3.67
2018-09-02T01:28:55.091Z,3.65
2018-09-02T01:31:23.410Z,3.55
2018-09-02T01:33:52.123Z,4.05
2018-09-02T01:36:20.338Z,5.08
2018-09-02T01:38:48.578Z,3.45
2018-09-02T01:41:17.058Z,3.72
2018-09-02T01:43:45.485Z,3.77
2018-09-02T01:46:13.722Z,3.35
2018-09-02T01:48:42.407Z,4.25
2018-09-02T01:51:10.670Z,3.20
2018-09-02T01:53:39.924Z,3.77
2018-09-02T01:56:11.098Z,3.20
2018-09-02T01:58:39.330Z,3.55
2018-09-02T02:01:07.694Z,2.47
2018-09-02T02:03:37.682Z,3.58
2018-09-02T02:06:05.943Z,3.62
2018-09-02T02:08:34.267Z,3.87
2018-09-02T02:11:02.547Z,2.95
2018-09-02T02:13:30.778Z,2.58
2018-09-02T02:15:59.079Z,3.95
2018-09-02T02:18:27.753Z,3.25
2018-09-02T02:20:56.074Z,2.77
2018-09-02T02:23:24.315Z,2.25
2018-09-02T02:25:53.317Z,2.42
2018-09-02T02:28:21.553Z,2.50
2018-09-02T02:30:49.878Z,2.50
2018-09-02T02:33:18.445Z,3.42
2018-09-02T02:35:46.697Z,2.75
2018-09-02T02:38:14.978Z,2.55
2018-09-02T02:40:43.890Z,1.98
2018-09-02T02:43:12.197Z,2.10
2018-09-02T02:45:40.418Z,2.47
2018-09-02T02:48:10.466Z,3.00
2018-09-02T02:50:38.703Z,2.08
2018-09-02T02:53:06.938Z,2.72
2018-09-02T02:55:35.927Z,3.12
2018-09-02T02:58:04.242Z,2.40
2018-09-02T03:00:33.023Z,2.98
2018-09-02T03:03:01.421Z,2.08
2018-09-02T03:05:30.078Z,1.85
2018-09-02T03:07:58.410Z,1.95
2018-09-02T03:10:27.611Z,1.82
2018-09-02T03:12:55.857Z,1.90
2018-09-02T03:15:24.097Z,1.90
2018-09-02T03:17:52.648Z,2.10
2018-09-02T03:20:20.907Z,2.02
2018-09-02T03:22:49.163Z,1.62
2018-09-02T03:25:17.542Z,1.82
2018-09-02T03:27:45.773Z,2.20
2018-09-02T03:30:14.017Z,2.15
2018-09-02T03:32:42.518Z,1.75
2018-09-02T03:35:10.748Z,2.10
2018-09-02T03:37:39.061Z,1.40
2018-09-02T03:40:07.655Z,2.22
2018-09-02T03:42:35.916Z,1.60
2018-09-02T03:45:04.161Z,1.98
2018-09-02T03:47:32.478Z,1.65
2018-09-02T03:50:00.730Z,1.45
2018-09-02T03:52:28.962Z,1.50
2018-09-02T03:54:57.721Z,1.77
2018-09-02T03:57:25.966Z,1.92
2018-09-02T03:59:54.222Z,1.80
2018-09-02T04:02:22.755Z,1.62
2018-09-02T04:04:51.107Z,1.45
2018-09-02T04:07:19.941Z,1.70
2018-09-02T04:09:48.206Z,1.80
2018-09-02T04:12:16.626Z,1.60
2018-09-02T04:14:45.579Z,1.80
2018-09-02T04:17:13.820Z,1.50
2018-09-02T04:19:42.296Z,1.70
2018-09-02T04:22:10.816Z,1.52
2018-09-02T04:24:39.065Z,1.52
2018-09-02T04:27:07.323Z,1.95
2018-09-02T04:29:36.060Z,1.67
2018-09-02T04:32:04.447Z,1.87
2018-09-02T04:34:32.779Z,1.40
2018-09-02T04:37:01.298Z,1.65
2018-09-02T04:39:29.541Z,2.55
2018-09-02T04:41:57.788Z,1.22
2018-09-02T04:44:26.542Z,2.85
2018-09-02T04:46:54.773Z,1.67
2018-09-02T04:49:23.006Z,1.50
2018-09-02T04:51:51.454Z,1.07
2018-09-02T04:54:19.755Z,1.60
2018-09-02T04:56:48.025Z,1.72
2018-09-02T04:59:16.927Z,1.72
2018-09-02T05:01:45.179Z,1.25
2018-09-02T05:04:13.855Z,1.60
2018-09-02T05:06:42.859Z,1.85
2018-09-02T05:09:11.263Z,1.62
2018-09-02T05:11:39.598Z,2.02
2018-09-02T05:14:08.174Z,1.47
2018-09-02T05:16:36.354Z,2.15
2018-09-02T05:19:06.093Z,1.80
2018-09-02T05:21:34.410Z,1.30
2018-09-02T05:24:02.655Z,1.27
2018-09-02T05:26:30.886Z,1.57
2018-09-02T05:28:59.401Z,1.92
2018-09-02T05:31:27.641Z,1.37
2018-09-02T05:33:55.883Z,1.30
2018-09-02T05:36:24.709Z,1.50
2018-09-02T05:38:52.938Z,1.98
2018-09-02T05:41:21.177Z,2.08
2018-09-02T05:43:50.047Z,2.12
2018-09-02T05:46:19.277Z,1.30
2018-09-02T05:48:47.587Z,1.57
2018-09-02T05:51:15.850Z,1.87
2018-09-02T05:53:44.156Z,2.05
2018-09-02T05:56:12.474Z,1.65
2018-09-02T05:58:41.808Z,2.15
2018-09-02T06:01:10.052Z,1.85
2018-09-02T06:03:38.366Z,1.20
2018-09-02T06:06:06.712Z,1.57
2018-09-02T06:08:34.958Z,1.52
2018-09-02T06:11:03.212Z,1.67
2018-09-02T06:13:31.715Z,1.22
2018-09-02T06:15:59.945Z,1.42
2018-09-02T06:18:28.206Z,2.08
2018-09-02T06:20:58.344Z,1.20
2018-09-02T06:23:26.653Z,2.08
2018-09-02T06:25:54.994Z,1.30
2018-09-02T06:28:23.578Z,2.70
2018-09-02T06:30:51.931Z,1.42
2018-09-02T06:33:20.182Z,1.35
2018-09-02T06:35:48.722Z,1.62
2018-09-02T06:38:17.030Z,1.67
2018-09-02T06:40:45.258Z,1.55
2018-09-02T06:43:13.621Z,1.12
2018-09-02T06:45:41.940Z,1.50
2018-09-02T06:48:10.125Z,1.60
2018-09-02T06:50:38.474Z,2.15
2018-09-02T06:53:06.702Z,1.65
2018-09-02T06:55:34.937Z,1.30
2018-09-02T06:58:03.935Z,1.40
2018-09-02T07:00:32.264Z,1.60
2018-09-02T07:03:00.511Z,1.20
2018-09-02T07:05:29.261Z,1.25
2018-09-02T07:07:57.517Z,1.50
2018-09-02T07:10:25.738Z,1.57
2018-09-02T07:12:54.610Z,1.55
2018-09-02T07:15:22.862Z,2.15
2018-09-02T07:17:51.125Z,1.50
2018-09-02T07:20:19.755Z,2.25
2018-09-02T07:22:48.986Z,1.57
2018-09-02T07:25:17.373Z,2.45
2018-09-02T07:27:46.085Z,3.95
2018-09-02T07:30:14.570Z,5.78
2018-09-02T07:32:43.226Z,4.53
2018-09-02T07:35:11.774Z,3.20
2018-09-02T07:37:40.002Z,5.20
2018-09-02T07:40:08.258Z,4.42
2018-09-02T07:42:37.317Z,3.52
2018-09-02T07:45:05.978Z,2.58
2018-09-02T07:47:34.341Z,6.28
2018-09-02T07:50:02.994Z,5.62
2018-09-02T07:52:31.244Z,5.87
2018-09-02T07:54:59.486Z,5.65
2018-09-02T07:57:28.210Z,5.72
2018-09-02T07:59:56.547Z,7.75
2018-09-02T08:02:24.816Z,8.30
2018-09-02T08:04:55.510Z,12.65
2018-09-02T08:07:23.737Z,9.98
2018-09-02T08:09:51.979Z,9.93
2018-09-02T08:12:20.917Z,12.05
2018-09-02T08:14:49.096Z,15.00
2018-09-02T08:17:17.336Z,15.00
2018-09-02T08:19:45.800Z,11.68
2018-09-02T08:22:14.090Z,11.25
2018-09-02T08:24:43.145Z,9.28
2018-09-02T08:27:12.246Z,10.00
2018-09-02T08:29:40.569Z,9.68
2018-09-02T08:32:08.871Z,9.00
2018-09-02T08:34:37.178Z,13.85
2018-09-02T08:37:05.439Z,11.63
2018-09-02T08:39:33.695Z,13.90
2018-09-02T08:42:02.401Z,14.90
2018-09-02T08:44:30.636Z,10.25
2018-09-02T08:46:58.903Z,10.00
2018-09-02T08:49:27.543Z,10.20
2018-09-02T08:51:55.786Z,9.25
2018-09-02T08:54:24.071Z,6.70
2018-09-02T08:56:53.015Z,8.75
2018-09-02T08:59:21.331Z,5.25
2018-09-02T09:01:49.776Z,14.28
2018-09-02T09:04:18.002Z,5.83
2018-09-02T09:06:46.248Z,5.72
2018-09-02T09:09:14.652Z,8.65
2018-09-02T09:11:43.172Z,8.28
2018-09-02T09:14:11.515Z,8.15
2018-09-02T09:16:39.801Z,6.42
2018-09-02T09:19:08.403Z,8.55
2018-09-02T09:21:36.754Z,13.08
2018-09-02T09:24:05.168Z,8.38
2018-09-02T09:26:34.259Z,7.50
2018-09-02T09:29:02.558Z,11.78
2018-09-02T09:31:30.829Z,8.33
2018-09-02T09:34:00.135Z,8.75
2018-09-02T09:36:28.386Z,9.50
2018-09-02T09:38:56.650Z,9.48
2018-09-02T09:41:24.951Z,7.30
2018-09-02T09:43:53.206Z,9.88
2018-09-02T09:46:21.458Z,6.35
2018-09-02T09:48:49.736Z,10.60
2018-09-02T09:51:18.003Z,15.25
2018-09-02T09:53:46.267Z,13.65
2018-09-02T09:56:16.046Z,11.38
2018-09-02T09:58:44.286Z,10.13
2018-09-02T10:01:12.550Z,11.60
2018-09-02T10:03:41.136Z,13.78
2018-09-02T10:06:09.338Z,12.53
2018-09-02T10:08:37.601Z,16.15
2018-09-02T10:11:06.435Z,9.10
2018-09-02T10:13:34.711Z,12.58
2018-09-02T10:16:02.982Z,23.55
2018-09-02T10:18:31.354Z,12.80
2018-09-02T10:20:59.598Z,17.82
2018-09-02T10:23:27.867Z,10.20
2018-09-02T10:25:56.604Z,10.82
2018-09-02T10:28:26.061Z,20.15
2018-09-02T10:30:54.307Z,14.15
2018-09-02T10:33:23.576Z,14.83
2018-09-02T10:35:51.818Z,12.85
2018-09-02T10:38:20.102Z,10.55
2018-09-02T10:40:48.491Z,15.03
2018-09-02T10:43:16.762Z,11.50
2018-09-02T10:45:45.024Z,20.43
2018-09-02T10:48:13.855Z,14.90
2018-09-02T10:50:42.196Z,13.43
2018-09-02T10:53:10.566Z,17.85
2018-09-02T10:55:40.287Z,11.43
2018-09-02T10:58:08.739Z,24.85
2018-09-02T11:00:37.006Z,18.62
2018-09-02T11:03:06.181Z,9.98
2018-09-02T11:05:37.022Z,16.40
2018-09-02T11:08:05.295Z,13.13
2018-09-02T11:10:33.978Z,17.95
2018-09-02T11:13:02.353Z,9.28
2018-09-02T11:15:30.702Z,10.55
2018-09-02T11:17:59.843Z,14.73
2018-09-02T11:20:28.114Z,10.58
2018-09-02T11:22:56.496Z,9.13
2018-09-02T11:25:25.491Z,13.08
2018-09-02T11:27:53.743Z,13.58
2018-09-02T11:30:22.042Z,13.80
2018-09-02T11:32:50.634Z,9.93
2018-09-02T11:35:18.903Z,10.13
2018-09-02T11:37:47.258Z,17.10
2018-09-02T11:40:15.756Z,17.25
2018-09-02T11:42:43.999Z,18.48
2018-09-02T11:45:12.317Z,24.20
2018-09-02T11:47:42.941Z,13.90
2018-09-02T11:50:11.211Z,19.32
2018-09-02T11:52:39.620Z,9.63
2018-09-02T11:55:08.632Z,12.78
2018-09-02T11:57:36.910Z,12.65
2018-09-02T12:00:05.204Z,15.15
2018-09-02T12:02:34.242Z,11.05
2018-09-02T12:05:02.595Z,15.23
2018-09-02T12:07:32.251Z,14.83
2018-09-02T12:10:00.687Z,10.80
2018-09-02T12:12:28.940Z,15.00
2018-09-02T12:14:57.271Z,15.50
2018-09-02T12:17:25.461Z,10.80
2018-09-02T12:19:53.799Z,15.72
2018-09-02T12:22:22.059Z,14.83
2018-09-02T12:24:51.402Z,16.02
2018-09-02T12:27:19.633Z,11.20
2018-09-02T12:29:47.896Z,13.15
2018-09-02T12:32:16.565Z,11.88
2018-09-02T12:34:44.794Z,11.55
2018-09-02T12:37:13.126Z,11.50
2018-09-02T12:39:41.485Z,19.35
2018-09-02T12:42:09.851Z,9.43
2018-09-02T12:44:38.587Z,23.73
2018-09-02T12:47:07.218Z,8.70
2018-09-02T12:49:35.462Z,8.28
2018-09-02T12:52:03.710Z,14.00
2018-09-02T12:54:32.035Z,8.35
2018-09-02T12:57:00.323Z,10.75
2018-09-02T12:59:28.579Z,8.65
2018-09-02T13:01:57.191Z,14.75
2018-09-02T13:04:25.464Z,13.00
2018-09-02T13:06:53.722Z,10.15
2018-09-02T13:09:23.366Z,10.98
2018-09-02T13:11:51.627Z,10.20
2018-09-02T13:14:19.910Z,6.28
2018-09-02T13:16:48.639Z,13.58
2018-09-02T13:19:16.894Z,8.38
2018-09-02T13:21:45.209Z,10.48
2018-09-02T13:24:13.758Z,11.15
2018-09-02T13:26:42.113Z,8.40
2018-09-02T13:29:10.397Z,15.78
2018-09-02T13:31:39.403Z,10.32
2018-09-02T13:34:07.657Z,14.38
2018-09-02T13:36:35.944Z,19.25
2018-09-02T13:39:06.130Z,15.10
2018-09-02T13:41:34.472Z,17.48
2018-09-02T13:44:02.743Z,11.18
2018-09-02T13:46:31.295Z,12.00
2018-09-02T13:48:59.685Z,11.75
2018-09-02T13:51:28.172Z,19.82
2018-09-02T13:53:56.984Z,13.70
2018-09-02T13:56:25.330Z,22.48
2018-09-02T13:58:53.610Z,55.05
2018-09-02T14:01:21.995Z,48.13
2018-09-02T14:03:52.194Z,56.08
2018-09-02T14:06:20.470Z,66.42
2018-09-02T14:08:48.859Z,77.32
2018-09-02T14:11:17.120Z,79.75
2018-09-02T14:13:45.472Z,96.05
2018-09-02T14:16:14.613Z,107.67
2018-09-02T14:18:42.886Z,105.65
2018-09-02T14:21:11.148Z,108.12
2018-09-02T14:23:40.459Z,107.25
2018-09-02T14:26:08.809Z,106.50
2018-09-02T14:28:37.086Z,100.00
2018-09-02T14:31:05.599Z,98.65
2018-09-02T14:33:33.944Z,92.65
2018-09-02T14:36:02.188Z,93.10
2018-09-02T14:38:30.942Z,82.50
2018-09-02T14:40:59.323Z,79.67
2018-09-02T14:43:27.579Z,73.33
2018-09-02T14:45:55.993Z,71.92
2018-09-02T14:48:24.255Z,66.02
2018-09-02T14:50:52.737Z,64.87
2018-09-02T14:53:21.023Z,63.00
2018-09-02T14:55:49.302Z,56.88
2018-09-02T14:58:17.574Z,54.08
2018-09-02T15:00:46.568Z,55.48
2018-09-02T15:03:14.918Z,49.33
2018-09-02T15:05:44.158Z,50.73
2018-09-02T15:08:12.469Z,44.13
2018-09-02T15:10:40.721Z,44.48
2018-09-02T15:13:09.066Z,46.40
2018-09-02T15:15:37.350Z,41.58
2018-09-02T15:18:05.755Z,46.75
2018-09-02T15:20:34.122Z,44.33
2018-09-02T15:23:02.695Z,39.03
2018-09-02T15:25:31.155Z,41.30
2018-09-02T15:27:59.491Z,50.12
2018-09-02T15:30:28.119Z,45.20
2018-09-02T15:32:56.366Z,43.65
2018-09-02T15:35:24.643Z,40.33
2018-09-02T15:37:52.946Z,38.35
2018-09-02T15:40:21.368Z,44.38
2018-09-02T15:42:49.709Z,40.78
2018-09-02T15:45:19.235Z,39.95
2018-09-02T15:47:47.538Z,41.20
2018-09-02T15:50:15.910Z,39.92
2018-09-02T15:52:44.479Z,40.40
2018-09-02T15:55:12.830Z,38.13
2018-09-02T15:57:41.089Z,41.20
2018-09-02T16:00:10.113Z,41.30
2018-09-02T16:02:38.550Z,38.38
2018-09-02T16:05:06.832Z,40.10
2018-09-02T16:07:36.184Z,46.88
2018-09-02T16:10:04.550Z,39.55
2018-09-02T16:12:32.843Z,37.83
2018-09-02T16:15:01.531Z,36.17
2018-09-02T16:17:29.825Z,44.23
2018-09-02T16:19:58.104Z,41.00
2018-09-02T16:22:27.711Z,42.53
2018-09-02T16:24:56.139Z,35.58
2018-09-02T16:27:24.467Z,39.95
2018-09-02T16:29:53.032Z,45.95
2018-09-02T16:32:21.329Z,38.50
2018-09-02T16:34:49.621Z,44.13
2018-09-02T16:37:18.281Z,36.95
2018-09-02T16:39:46.627Z,37.20
2018-09-02T16:42:15.069Z,38.15
2018-09-02T16:44:43.915Z,33.25
2018-09-02T16:47:12.195Z,39.63
2018-09-02T16:49:40.447Z,40.92
2018-09-02T16:52:09.169Z,35.63
2018-09-02T16:54:37.492Z,35.80
2018-09-02T16:57:06.040Z,42.30
2018-09-02T16:59:34.801Z,39.05
2018-09-02T17:02:03.079Z,34.20
2018-09-02T17:04:35.062Z,36.25
2018-09-02T17:07:03.399Z,34.58
2018-09-02T17:09:32.016Z,39.33
2018-09-02T17:12:00.440Z,33.65
2018-09-02T17:14:30.116Z,39.00
2018-09-02T17:16:58.391Z,36.80
2018-09-02T17:19:29.329Z,35.13
2018-09-02T17:21:58.634Z,33.02
2018-09-02T17:24:26.987Z,30.55
2018-09-02T17:26:55.754Z,35.55
2018-09-02T17:29:24.487Z,33.30
2018-09-02T17:31:52.763Z,30.92
2018-09-02T17:34:21.362Z,30.23
2018-09-02T17:36:51.356Z,32.95
2018-09-02T17:39:19.696Z,33.10
2018-09-02T17:41:47.974Z,34.45
2018-09-02T17:44:17.224Z,30.55
2018-09-02T17:46:45.551Z,36.08
2018-09-02T17:49:13.846Z,31.33
2018-09-02T17:51:42.188Z,33.53
2018-09-02T17:54:10.476Z,31.73
2018-09-02T17:56:38.949Z,37.80
2018-09-02T17:59:07.576Z,37.55
2018-09-02T18:01:35.960Z,33.75
2018-09-02T18:04:04.262Z,44.67
2018-09-02T18:06:32.703Z,33.75
2018-09-02T18:09:01.051Z,36.08
2018-09-02T18:11:30.257Z,28.30
2018-09-02T18:13:58.932Z,28.42
2018-09-02T18:16:27.207Z,27.45
2018-09-02T18:18:56.161Z,28.42
2018-09-02T18:21:25.691Z,24.12
2018-09-02T18:23:53.966Z,28.25
2018-09-02T18:26:22.228Z,31.17
2018-09-02T18:28:51.044Z,26.55
2018-09-02T18:31:19.342Z,29.65
2018-09-02T18:33:47.590Z,30.02
2018-09-02T18:36:16.392Z,23.65
2018-09-02T18:38:44.779Z,26.00
2018-09-02T18:41:13.145Z,28.62
2018-09-02T18:43:42.326Z,24.10
2018-09-02T18:46:10.772Z,27.87
2018-09-02T18:48:39.008Z,27.00
2018-09-02T18:51:08.344Z,28.70
2018-09-02T18:53:36.912Z,24.20
2018-09-02T18:56:05.395Z,24.65
2018-09-02T18:58:33.706Z,24.37
2018-09-02T19:01:02.005Z,23.75
2018-09-02T19:03:30.712Z,22.75
2018-09-02T19:05:59.154Z,25.08
2018-09-02T19:08:27.822Z,26.68
2018-09-02T19:10:56.557Z,23.20
2018-09-02T19:13:25.805Z,24.02
2018-09-02T19:15:54.163Z,26.40
2018-09-02T19:18:22.586Z,26.27
2018-09-02T19:20:50.933Z,19.40
2018-09-02T19:23:19.374Z,22.55
2018-09-02T19:25:48.871Z,22.58
2018-09-02T19:28:17.150Z,22.13
2018-09-02T19:30:45.894Z,23.70
2018-09-02T19:33:14.239Z,21.93
2018-09-02T19:35:42.782Z,23.35
2018-09-02T19:38:11.072Z,21.73
2018-09-02T19:40:39.711Z,24.50
2018-09-02T19:43:08.003Z,23.05
2018-09-02T19:45:36.325Z,22.48
2018-09-02T19:48:04.802Z,20.10
2018-09-02T19:50:33.100Z,20.95
2018-09-02T19:53:01.463Z,25.30
2018-09-02T19:55:29.789Z,18.92
2018-09-02T19:57:58.197Z,19.90
2018-09-02T20:00:26.443Z,23.77
2018-09-02T20:02:56.607Z,21.30
2018-09-02T20:05:29.513Z,19.30
2018-09-02T20:07:58.891Z,19.50
2018-09-02T20:10:27.138Z,17.45
2018-09-02T20:12:55.399Z,21.87
2018-09-02T20:15:24.844Z,17.48
2018-09-02T20:17:53.150Z,18.73
2018-09-02T20:20:21.475Z,17.12
2018-09-02T20:22:50.698Z,17.42
2018-09-02T20:25:19.022Z,18.62
2018-09-02T20:27:47.290Z,16.82
2018-09-02T20:30:16.267Z,18.12
2018-09-02T20:32:44.523Z,22.70
2018-09-02T20:35:12.808Z,21.95
2018-09-02T20:37:41.603Z,17.17
2018-09-02T20:40:09.858Z,19.42
2018-09-02T20:42:38.137Z,17.80
2018-09-02T20:45:06.838Z,17.82
2018-09-02T20:47:35.098Z,17.73
2018-09-02T20:50:03.391Z,19.25
2018-09-02T20:52:31.690Z,16.55
2018-09-02T20:55:00.174Z,18.20
2018-09-02T20:57:28.518Z,19.12
2018-09-02T20:59:58.233Z,16.00
2018-09-02T21:02:26.675Z,14.55
2018-09-02T21:04:54.885Z,15.55
2018-09-02T21:07:23.571Z,15.43
2018-09-02T21:09:51.834Z,16.75
2018-09-02T21:12:20.119Z,14.33
2018-09-02T21:14:51.444Z,17.15
2018-09-02T21:17:20.636Z,15.88
2018-09-02T21:19:49.365Z,13.83
2018-09-02T21:22:18.257Z,20.32
2018-09-02T21:24:46.508Z,16.35
2018-09-02T21:27:14.830Z,14.07
2018-09-02T21:29:43.614Z,20.27
2018-09-02T21:32:11.936Z,16.90
2018-09-02T21:34:40.174Z,15.85
2018-09-02T21:37:09.773Z,15.60
2018-09-02T21:39:38.099Z,16.90
2018-09-02T21:42:06.400Z,17.87
2018-09-02T21:44:35.209Z,15.78
2018-09-02T21:47:03.499Z,16.25
2018-09-02T21:49:31.898Z,15.05
2018-09-02T21:52:00.546Z,15.15
2018-09-02T21:54:28.971Z,18.10
2018-09-02T21:56:58.384Z,14.47
2018-09-02T21:59:27.009Z,13.08
2018-09-02T22:01:55.355Z,13.80
2018-09-02T22:04:23.694Z,12.68
2018-09-02T22:06:52.257Z,14.03
2018-09-02T22:09:20.675Z,11.93
2018-09-02T22:11:49.015Z,12.93
2018-09-02T22:14:18.109Z,12.03
2018-09-02T22:16:46.439Z,13.83
2018-09-02T22:19:15.551Z,14.23
2018-09-02T22:21:43.925Z,14.90
2018-09-02T22:24:12.158Z,14.15
2018-09-02T22:26:40.481Z,12.95
2018-09-02T22:29:08.820Z,13.22
2018-09-02T22:31:37.071Z,12.65
2018-09-02T22:34:05.509Z,12.53
2018-09-02T22:36:34.218Z,11.75
2018-09-02T22:39:02.554Z,13.95
2018-09-02T22:41:30.818Z,13.55
2018-09-02T22:43:59.516Z,14.40
2018-09-02T22:46:27.821Z,12.63
2018-09-02T22:48:56.154Z,11.73
2018-09-02T22:51:24.823Z,11.55
2018-09-02T22:53:53.226Z,13.40
2018-09-02T22:56:21.570Z,11.90
2018-09-02T22:58:50.781Z,13.43
2018-09-02T23:01:19.005Z,11.03
2018-09-02T23:03:48.401Z,11.15
2018-09-02T23:06:16.757Z,11.10
2018-09-02T23:08:45.095Z,11.45
2018-09-02T23:11:13.389Z,11.10
2018-09-02T23:13:41.744Z,10.30
2018-09-02T23:16:09.982Z,12.33
2018-09-02T23:18:38.839Z,12.47
2018-09-02T23:21:08.279Z,12.93
2018-09-02T23:23:36.669Z,11.30
2018-09-02T23:26:05.535Z,10.55
2018-09-02T23:28:33.856Z,10.68
2018-09-02T23:31:02.091Z,14.35
2018-09-02T23:33:30.851Z,10.55
2018-09-02T23:35:59.181Z,11.55
2018-09-02T23:38:27.431Z,9.83
2018-09-02T23:40:56.298Z,10.43
2018-09-02T23:43:24.639Z,10.93
2018-09-02T23:45:52.902Z,10.40
2018-09-02T23:48:21.210Z,11.60
2018-09-02T23:50:49.625Z,11.40
2018-09-02T23:53:17.867Z,11.70
2018-09-02T23:55:46.580Z,12.35
2018-09-02T23:58:14.903Z,10.68
